createdAt,value
2023-04-13T00:02:29.254Z,0.97
2023-04-13T00:07:34.084Z,0.70
2023-04-13T00:12:41.068Z,1.10
2023-04-13T00:17:45.696Z,1.00
2023-04-13T00:22:49.700Z,0.80
2023-04-13T00:27:54.187Z,0.70
2023-04-13T00:32:57.466Z,0.60
2023-04-13T00:38:00.954Z,0.70
2023-04-13T00:43:05.802Z,0.70
2023-04-13T00:48:14.191Z,0.80
2023-04-13T00:53:18.673Z,0.93
2023-04-13T00:58:23.555Z,0.77
2023-04-13T01:03:27.890Z,0.83
2023-04-13T01:08:38.149Z,0.80
2023-04-13T01:13:48.821Z,0.67
2023-04-13T01:18:55.908Z,0.70
2023-04-13T01:24:18.207Z,0.67
2023-04-13T01:29:24.586Z,0.90
2023-04-13T01:34:29.147Z,0.60
2023-04-13T01:39:33.369Z,1.00
2023-04-13T01:44:39.123Z,0.80
2023-04-13T01:49:46.640Z,1.07
2023-04-13T01:54:53.418Z,0.70
2023-04-13T01:59:58.955Z,0.90
2023-04-13T02:05:02.108Z,0.63
2023-04-13T02:10:06.551Z,0.97
2023-04-13T02:15:12.702Z,0.80
2023-04-13T02:20:16.372Z,0.90
2023-04-13T02:25:19.837Z,0.83
2023-04-13T02:30:24.950Z,0.90
2023-04-13T02:35:28.522Z,0.90
2023-04-13T02:40:31.896Z,0.97
2023-04-13T02:45:36.786Z,0.93
2023-04-13T02:50:40.175Z,0.97
2023-04-13T02:55:43.386Z,0.90
2023-04-13T03:00:48.690Z,1.43
2023-04-13T03:05:52.676Z,1.13
2023-04-13T03:10:55.816Z,1.00
2023-04-13T03:16:02.163Z,1.10
2023-04-13T03:21:07.013Z,1.10
2023-04-13T03:26:14.128Z,1.10
2023-04-13T03:31:18.966Z,0.80
2023-04-13T03:36:22.112Z,0.63
2023-04-13T03:41:26.685Z,0.77
2023-04-13T03:46:33.320Z,0.73
2023-04-13T03:51:37.499Z,0.87
2023-04-13T03:56:41.386Z,0.50
2023-04-13T04:01:46.270Z,0.53
2023-04-13T04:06:49.956Z,0.60
2023-04-13T04:11:54.243Z,0.50
2023-04-13T04:16:58.906Z,0.60
2023-04-13T04:22:04.078Z,0.57
2023-04-13T04:27:08.039Z,0.50
2023-04-13T04:32:13.311Z,0.73
2023-04-13T04:37:20.665Z,0.63
2023-04-13T04:42:25.564Z,0.50
2023-04-13T04:47:30.825Z,0.60
2023-04-13T04:52:34.893Z,0.47
2023-04-13T04:57:47.994Z,0.63
2023-04-13T05:02:52.874Z,0.77
2023-04-13T05:07:56.438Z,0.67
2023-04-13T05:13:02.388Z,0.70
2023-04-13T05:18:07.531Z,0.83
2023-04-13T05:23:11.573Z,0.67
2023-04-13T05:28:15.068Z,0.60
2023-04-13T05:33:24.953Z,1.17
2023-04-13T05:38:39.484Z,0.90
2023-04-13T05:43:44.623Z,0.93
2023-04-13T05:48:55.571Z,0.70
2023-04-13T05:53:59.440Z,0.70
2023-04-13T05:59:05.906Z,0.70
2023-04-13T06:04:12.078Z,0.70
2023-04-13T06:09:15.847Z,0.87
2023-04-13T06:14:20.834Z,0.80
2023-04-13T06:19:28.261Z,0.60
2023-04-13T06:24:32.579Z,0.90
2023-04-13T06:29:37.842Z,0.57
2023-04-13T06:34:42.611Z,0.57
2023-04-13T06:39:46.236Z,0.60
2023-04-13T06:44:49.615Z,1.07
2023-04-13T06:49:55.098Z,0.83
2023-04-13T06:54:59.142Z,1.00
2023-04-13T07:00:02.410Z,0.63
2023-04-13T07:05:08.436Z,0.93
2023-04-13T07:10:12.140Z,0.77
2023-04-13T07:15:16.081Z,0.77
2023-04-13T07:20:22.348Z,0.83
2023-04-13T07:25:25.525Z,0.87
2023-04-13T07:30:28.810Z,0.80
2023-04-13T07:35:34.245Z,0.87
2023-04-13T07:40:41.167Z,0.90
2023-04-13T07:45:44.731Z,0.70
2023-04-13T07:50:49.285Z,0.75
2023-04-13T07:55:54.049Z,0.90
2023-04-13T08:00:57.502Z,1.10
2023-04-13T08:06:02.752Z,1.13
2023-04-13T08:11:06.279Z,0.70
2023-04-13T08:16:11.876Z,0.80
2023-04-13T08:21:17.039Z,1.10
2023-04-13T08:26:23.126Z,0.80
2023-04-13T08:31:27.118Z,0.70
2023-04-13T08:36:32.066Z,0.70
2023-04-13T08:41:39.819Z,0.63
2023-04-13T08:46:47.645Z,0.70
2023-04-13T08:51:53.287Z,1.00
2023-04-13T08:56:57.897Z,0.82
2023-04-13T09:02:04.951Z,0.93
2023-04-13T09:07:17.408Z,1.00
2023-04-13T09:12:20.823Z,0.80
2023-04-13T09:17:27.820Z,0.70
2023-04-13T09:22:33.424Z,0.70
2023-04-13T09:27:37.241Z,0.93
2023-04-13T09:32:40.565Z,1.00
2023-04-13T09:37:48.029Z,0.90
2023-04-13T09:42:59.266Z,1.40
2023-04-13T09:48:03.607Z,0.80
2023-04-13T09:53:10.832Z,0.90
2023-04-13T09:58:16.870Z,0.70
2023-04-13T10:03:22.533Z,0.68
2023-04-13T10:08:38.032Z,0.70
2023-04-13T10:13:49.533Z,0.80
2023-04-13T10:19:00.909Z,0.90
2023-04-13T10:29:16.965Z,0.75
2023-04-13T10:34:26.503Z,1.55
2023-04-13T10:39:34.065Z,0.80
2023-04-13T10:44:47.620Z,0.73
2023-04-13T10:49:52.320Z,0.90
2023-04-13T10:54:58.891Z,0.90
2023-04-13T11:00:02.076Z,0.88
2023-04-13T11:05:06.251Z,1.10
2023-04-13T11:10:13.079Z,0.88
2023-04-13T11:15:21.084Z,0.88
2023-04-13T11:20:34.778Z,0.90
2023-04-13T11:25:39.587Z,0.93
2023-04-13T11:30:43.499Z,0.90
2023-04-13T11:35:50.096Z,0.80
2023-04-13T11:41:12.577Z,1.00
2023-04-13T11:46:25.441Z,0.70
2023-04-13T11:51:29.492Z,0.85
2023-04-13T11:56:34.288Z,0.80
2023-04-13T12:01:44.835Z,0.80
2023-04-13T12:06:53.193Z,0.70
2023-04-13T12:12:29.829Z,0.80
2023-04-13T12:22:50.953Z,0.90
2023-04-13T12:27:57.266Z,0.80
2023-04-13T12:33:01.157Z,0.90
2023-04-13T12:38:05.322Z,0.70
2023-04-13T12:43:10.078Z,0.73
2023-04-13T12:48:13.609Z,0.70
2023-04-13T12:53:17.117Z,0.80
2023-04-13T12:58:21.834Z,0.68
2023-04-13T13:03:25.221Z,0.73
2023-04-13T13:08:28.573Z,0.80
2023-04-13T13:13:33.246Z,0.60
2023-04-13T13:18:49.634Z,0.98
2023-04-13T13:23:53.939Z,0.95
2023-04-13T13:29:00.019Z,0.50
2023-04-13T13:34:04.847Z,0.70
2023-04-13T13:39:08.119Z,0.90
2023-04-13T13:44:13.110Z,0.90
2023-04-13T13:49:16.686Z,0.73
2023-04-13T13:54:21.062Z,0.75
2023-04-13T13:59:26.049Z,0.80
2023-04-13T14:04:29.713Z,0.88
2023-04-13T14:09:33.992Z,0.70
2023-04-13T14:14:38.879Z,0.85
2023-04-13T14:19:42.500Z,0.70
2023-04-13T14:24:46.558Z,0.80
2023-04-13T14:29:52.345Z,0.90
2023-04-13T14:34:56.772Z,0.90
2023-04-13T14:40:00.290Z,0.50
2023-04-13T14:45:06.826Z,0.60
2023-04-13T14:50:11.812Z,0.88
2023-04-13T14:55:16.855Z,0.73
2023-04-13T15:00:26.633Z,0.90
2023-04-13T15:05:31.515Z,1.05
2023-04-13T15:10:36.095Z,0.85
2023-04-13T15:15:41.654Z,1.00
2023-04-13T15:20:45.130Z,1.33
2023-04-13T15:25:48.464Z,0.80
2023-04-13T15:30:53.323Z,0.95
2023-04-13T15:36:07.828Z,1.02
2023-04-13T15:41:11.729Z,0.90
2023-04-13T15:46:16.757Z,0.90
2023-04-13T15:51:20.410Z,0.80
2023-04-13T15:56:26.530Z,1.00
2023-04-13T16:01:58.424Z,1.25
2023-04-13T16:07:12.950Z,0.70
2023-04-13T16:12:17.785Z,0.70
2023-04-13T16:17:31.136Z,0.88
2023-04-13T16:22:36.467Z,1.05
2023-04-13T16:27:41.774Z,1.20
2023-04-13T16:32:47.315Z,1.05
2023-04-13T16:37:50.471Z,1.02
2023-04-13T16:42:53.881Z,1.15
2023-04-13T16:47:58.774Z,1.10
2023-04-13T16:53:02.048Z,1.15
2023-04-13T16:58:07.431Z,1.10
2023-04-13T17:03:15.053Z,1.05
2023-04-13T17:08:18.484Z,1.20
2023-04-13T17:13:22.369Z,1.10
2023-04-13T17:18:30.285Z,0.90
2023-04-13T17:23:33.915Z,0.88
2023-04-13T17:28:37.143Z,1.20
2023-04-13T17:33:42.021Z,1.02
2023-04-13T17:38:46.448Z,0.82
2023-04-13T17:43:49.684Z,1.65
2023-04-13T17:48:54.515Z,1.20
2023-04-13T17:53:57.861Z,1.27
2023-04-13T17:59:01.795Z,1.30
2023-04-13T18:04:06.986Z,1.30
2023-04-13T18:09:12.954Z,1.40
2023-04-13T18:14:16.556Z,1.80
2023-04-13T18:19:21.398Z,1.53
2023-04-13T18:24:24.922Z,2.50
2023-04-13T18:29:28.214Z,2.70
2023-04-13T18:34:34.424Z,3.07
2023-04-13T18:39:39.643Z,3.30
2023-04-13T18:44:42.784Z,3.33
2023-04-13T18:49:47.622Z,2.13
2023-04-13T18:54:51.555Z,2.20
2023-04-13T18:59:56.970Z,2.23
2023-04-13T19:05:01.786Z,2.00
2023-04-13T19:10:05.876Z,1.87
2023-04-13T19:15:09.780Z,1.93
2023-04-13T19:20:14.536Z,2.00
2023-04-13T19:25:18.257Z,2.10
2023-04-13T19:30:21.959Z,2.53
2023-04-13T19:35:27.326Z,2.33
2023-04-13T19:40:30.728Z,2.40
2023-04-13T19:45:34.126Z,2.33
2023-04-13T19:50:38.950Z,1.80
2023-04-13T19:55:42.324Z,1.77
2023-04-13T20:00:47.381Z,2.50
2023-04-13T20:05:52.720Z,2.50
2023-04-13T20:10:57.908Z,2.93
2023-04-13T20:16:02.583Z,2.77
2023-04-13T20:21:08.229Z,3.03
2023-04-13T20:26:12.232Z,2.97
2023-04-13T20:31:15.871Z,2.83
2023-04-13T20:36:21.721Z,2.40
2023-04-13T20:41:25.055Z,2.30
2023-04-13T20:46:34.687Z,1.93
2023-04-13T20:51:39.881Z,2.50
2023-04-13T20:56:44.081Z,2.40
2023-04-13T21:01:49.019Z,2.53
2023-04-13T21:06:55.534Z,2.60
2023-04-13T21:11:59.344Z,2.80
2023-04-13T21:17:02.870Z,2.60
2023-04-13T21:22:07.740Z,2.30
2023-04-13T21:27:11.105Z,2.57
2023-04-13T21:32:14.774Z,2.43
2023-04-13T21:37:19.689Z,2.53
2023-04-13T21:42:23.043Z,2.50
2023-04-13T21:47:26.599Z,2.70
2023-04-13T21:52:31.705Z,2.57
2023-04-13T21:57:34.910Z,2.70
2023-04-13T22:02:38.235Z,2.30
2023-04-13T22:07:43.597Z,1.80
2023-04-13T22:12:47.657Z,4.93
2023-04-13T22:17:51.161Z,2.40
2023-04-13T22:22:55.889Z,2.50
2023-04-13T22:27:59.171Z,2.20
2023-04-13T22:33:03.669Z,1.70
2023-04-13T22:38:08.498Z,1.87
2023-04-13T22:43:12.011Z,1.60
2023-04-13T22:48:15.519Z,1.70
2023-04-13T22:53:20.537Z,1.90
2023-04-13T22:58:23.844Z,1.70
2023-04-13T23:03:27.685Z,1.63
2023-04-13T23:08:32.656Z,2.00
2023-04-13T23:13:36.803Z,2.10
2023-04-13T23:18:40.096Z,1.73
2023-04-13T23:23:44.976Z,1.90
2023-04-13T23:28:48.496Z,2.23
2023-04-13T23:33:53.473Z,1.83
2023-04-13T23:38:59.796Z,1.97
2023-04-13T23:44:03.294Z,2.10
2023-04-13T23:49:06.763Z,1.83
2023-04-13T23:54:12.199Z,2.23
2023-04-13T23:59:15.672Z,2.20
